Time;durP1;ratioP1;P1;durP2;ratioP2;P2;SDS_P1;SDS_P2;PMS_P1;PMS_P2;Temp;Humidity;BMP_temperature;BMP_pressure;BME280_temperature;BME280_humidity;BME280_pressure;Samples;Min_cycle;Max_cycle;Signal;HPM_P1;HPM_P2
2021/06/03 00:02:12;;;;;;;;;;;22.00;71.10;;;;;;4302357;33;20025;-69
2021/06/03 00:04:39;;;;;;;;;;;22.00;71.00;;;;;;4301443;33;44720;-69
2021/06/03 00:07:07;;;;;;;;;;;21.90;70.90;;;;;;4301067;33;44282;-69
2021/06/03 00:09:34;;;;;;;;;;;22.00;70.90;;;;;;4301194;33;40656;-69
2021/06/03 00:12:01;;;;;;;;;;;22.00;70.90;;;;;;4301319;33;44240;-69
2021/06/03 00:14:28;;;;;;;;;;;21.90;70.70;;;;;;4301722;33;43360;-68
2021/06/03 00:16:55;;;;;;;;;;;21.90;70.70;;;;;;4301067;33;44332;-69
2021/06/03 00:19:22;;;;;;;;;;;21.90;70.70;;;;;;4301488;33;44367;-69
2021/06/03 00:21:49;;;;;;;;;;;21.80;70.60;;;;;;4287872;33;43857;-69
2021/06/03 00:24:19;;;;;;;;;;;21.80;70.90;;;;;;4301197;33;42535;-69
2021/06/03 00:26:46;;;;;;;;;;;21.70;70.90;;;;;;4301510;33;44157;-69
2021/06/03 00:29:14;;;;;;;;;;;21.70;71.00;;;;;;4288147;33;42776;-69
2021/06/03 00:31:44;;;;;;;;;;;21.60;71.10;;;;;;4302776;33;20002;-69
2021/06/03 00:34:11;;;;;;;;;;;21.60;71.30;;;;;;4287744;33;44493;-69
2021/06/03 00:36:38;;;;;;;;;;;21.50;71.30;;;;;;4300318;33;44326;-69
2021/06/03 00:39:06;;;;;;;;;;;21.50;71.20;;;;;;4301404;33;44662;-69
2021/06/03 00:41:33;;;;;;;;;;;21.50;71.30;;;;;;4301393;33;44453;-69
2021/06/03 00:44:01;;;;;;;;;;;21.50;71.30;;;;;;4299808;33;44527;-69
2021/06/03 00:46:29;;;;;;;;;;;21.50;71.30;;;;;;4299702;33;44608;-69
2021/06/03 00:48:56;;;;;;;;;;;21.50;71.30;;;;;;4300866;33;43276;-69
2021/06/03 00:51:24;;;;;;;;;;;21.50;71.30;;;;;;4301616;33;43632;-69
2021/06/03 00:53:52;;;;;;;;;;;21.50;71.10;;;;;;4301305;33;43661;-69
2021/06/03 00:56:19;;;;;;;;;;;21.60;71.00;;;;;;4300796;33;42677;-69
2021/06/03 00:58:46;;;;;;;;;;;21.60;70.70;;;;;;4299656;33;43696;-69
2021/06/03 01:01:13;;;;;;;;;;;21.60;70.60;;;;;;4300752;33;42582;-69
2021/06/03 01:03:40;;;;;;;;;;;21.70;70.60;;;;;;4301001;33;44494;-69
2021/06/03 01:06:09;;;;;;;;;;;21.70;70.50;;;;;;4300852;33;43617;-68
2021/06/03 01:08:38;;;;;;;;;;;21.70;70.60;;;;;;4301150;33;44704;-69
2021/06/03 01:11:20;;;;;;;;;;;21.70;70.50;;;;;;4302269;33;43337;-69
2021/06/03 01:13:50;;;;;;;;;;;21.60;70.50;;;;;;4304827;33;20073;-69
2021/06/03 01:16:18;;;;;;;;;;;21.60;70.60;;;;;;4303826;33;44658;-69
2021/06/03 01:18:46;;;;;;;;;;;21.60;70.80;;;;;;4303273;33;43661;-70
2021/06/03 01:21:16;;;;;;;;;;;21.50;70.80;;;;;;4303613;33;44324;-70
2021/06/03 01:23:43;;;;;;;;;;;21.50;71.00;;;;;;4303225;33;43575;-69
2021/06/03 01:26:11;;;;;;;;;;;21.40;71.10;;;;;;4302692;33;44121;-69
2021/06/03 01:28:38;;;;;;;;;;;21.40;71.30;;;;;;4302452;33;43388;-69
2021/06/03 01:31:05;;;;;;;;;;;21.40;71.50;;;;;;4303355;33;43657;-69
2021/06/03 01:33:33;;;;;;;;;;;21.30;71.60;;;;;;4303244;33;43237;-69
2021/06/03 01:36:03;;;;;;;;;;;21.30;71.70;;;;;;4303631;33;43628;-69
2021/06/03 01:38:31;;;;;;;;;;;21.20;71.80;;;;;;4303049;33;43284;-69
2021/06/03 01:41:00;;;;;;;;;;;21.20;71.90;;;;;;4303385;33;43309;-69
2021/06/03 01:43:28;;;;;;;;;;;21.20;72.00;;;;;;4304718;33;20014;-69
2021/06/03 01:45:56;;;;;;;;;;;21.20;72.00;;;;;;4302933;33;43691;-69
2021/06/03 01:48:23;;;;;;;;;;;21.20;72.20;;;;;;4301979;33;43280;-69
2021/06/03 01:50:51;;;;;;;;;;;21.20;72.20;;;;;;4303143;33;44132;-69
2021/06/03 01:53:20;;;;;;;;;;;21.20;72.20;;;;;;4303300;33;43676;-69
2021/06/03 01:55:47;;;;;;;;;;;21.20;72.20;;;;;;4303208;33;43698;-69
2021/06/03 01:58:14;;;;;;;;;;;21.20;72.40;;;;;;4303409;33;43695;-69
2021/06/03 02:00:42;;;;;;;;;;;21.20;72.40;;;;;;4303155;33;43283;-69
2021/06/03 02:03:09;;;;;;;;;;;21.10;72.60;;;;;;4302673;33;42488;-69
2021/06/03 02:05:36;;;;;;;;;;;21.10;72.70;;;;;;4301865;33;43448;-69
2021/06/03 02:08:04;;;;;;;;;;;21.10;73.10;;;;;;4302960;33;44487;-70
2021/06/03 02:10:31;;;;;;;;;;;21.00;73.50;;;;;;4302644;33;43629;-69
2021/06/03 02:12:57;;;;;;;;;;;20.90;74.00;;;;;;4302568;33;44345;-69
2021/06/03 02:15:26;;;;;;;;;;;20.90;74.00;;;;;;4303572;33;24336;-69
2021/06/03 02:17:55;;;;;;;;;;;20.90;73.90;;;;;;4303746;33;20005;-69
2021/06/03 02:20:24;;;;;;;;;;;20.80;74.20;;;;;;4303317;33;21104;-69
2021/06/03 02:22:51;;;;;;;;;;;20.80;74.40;;;;;;4303414;33;22697;-69
2021/06/03 02:25:18;;;;;;;;;;;20.80;74.60;;;;;;4303070;33;21987;-69
2021/06/03 02:27:47;;;;;;;;;;;20.80;74.70;;;;;;4302430;33;23969;-69
2021/06/03 02:30:16;;;;;;;;;;;20.80;75.00;;;;;;4303645;33;20421;-69
2021/06/03 02:32:44;;;;;;;;;;;20.80;75.00;;;;;;4303251;33;26167;-69
2021/06/03 02:35:11;;;;;;;;;;;20.80;75.20;;;;;;4302918;33;20714;-69
2021/06/03 02:37:39;;;;;;;;;;;20.70;75.60;;;;;;4303394;33;20081;-69
2021/06/03 02:40:08;;;;;;;;;;;20.70;75.50;;;;;;4302909;33;25015;-69
2021/06/03 02:42:37;;;;;;;;;;;20.80;75.40;;;;;;4302875;33;26141;-69
2021/06/03 02:45:07;;;;;;;;;;;20.80;75.40;;;;;;4303668;33;20054;-68
2021/06/03 02:47:35;;;;;;;;;;;20.80;75.30;;;;;;4303483;33;20017;-69
2021/06/03 02:50:02;;;;;;;;;;;20.90;75.40;;;;;;4302178;33;20010;-69
2021/06/03 02:52:29;;;;;;;;;;;20.90;75.30;;;;;;4301619;33;20943;-69
2021/06/03 02:54:56;;;;;;;;;;;20.90;75.30;;;;;;4303174;33;20040;-69
2021/06/03 02:57:23;;;;;;;;;;;20.90;75.50;;;;;;4302763;33;24228;-69
2021/06/03 02:59:50;;;;;;;;;;;20.90;75.30;;;;;;4289513;33;28958;-69
2021/06/03 03:02:17;;;;;;;;;;;21.00;75.30;;;;;;4289301;33;24883;-69
2021/06/03 03:04:44;;;;;;;;;;;21.00;75.50;;;;;;4301741;33;43615;-69
2021/06/03 03:07:11;;;;;;;;;;;21.00;75.40;;;;;;4302051;33;44331;-69
2021/06/03 03:09:38;;;;;;;;;;;21.00;75.30;;;;;;4301544;33;36481;-69
2021/06/03 03:12:06;;;;;;;;;;;21.00;75.30;;;;;;4302170;33;43394;-68
2021/06/03 03:14:33;;;;;;;;;;;21.00;75.30;;;;;;4301695;33;43411;-69
2021/06/03 03:17:00;;;;;;;;;;;21.10;75.30;;;;;;4302092;33;44439;-69
2021/06/03 03:19:27;;;;;;;;;;;21.10;75.30;;;;;;4301624;33;42805;-69
2021/06/03 03:21:54;;;;;;;;;;;21.10;75.30;;;;;;4301900;33;42395;-69
2021/06/03 03:24:21;;;;;;;;;;;21.10;75.30;;;;;;4302056;33;42525;-69
2021/06/03 03:26:48;;;;;;;;;;;21.10;75.50;;;;;;4288513;33;43678;-69
2021/06/03 03:29:15;;;;;;;;;;;21.10;75.50;;;;;;4301848;33;43372;-69
2021/06/03 03:31:42;;;;;;;;;;;21.10;75.50;;;;;;4300527;33;43665;-69
2021/06/03 03:34:09;;;;;;;;;;;21.10;75.70;;;;;;4301802;33;25331;-68
2021/06/03 03:36:37;;;;;;;;;;;21.10;75.80;;;;;;4300394;33;43378;-69
2021/06/03 03:39:05;;;;;;;;;;;21.10;76.10;;;;;;4301626;33;43300;-69
2021/06/03 03:41:33;;;;;;;;;;;21.10;76.00;;;;;;4301525;33;43579;-69
2021/06/03 03:44:00;;;;;;;;;;;21.10;76.20;;;;;;4302606;33;20073;-69
2021/06/03 03:46:27;;;;;;;;;;;21.10;76.60;;;;;;4301277;33;44617;-69
2021/06/03 03:48:54;;;;;;;;;;;21.00;76.70;;;;;;4300213;33;41773;-69
2021/06/03 03:51:21;;;;;;;;;;;21.00;77.00;;;;;;4301372;33;44055;-69
2021/06/03 03:53:48;;;;;;;;;;;21.00;77.30;;;;;;4300692;33;44670;-68
2021/06/03 03:56:15;;;;;;;;;;;20.90;77.30;;;;;;4301755;33;44235;-69
2021/06/03 03:58:43;;;;;;;;;;;20.90;77.30;;;;;;4301674;33;43280;-69
2021/06/03 04:01:10;;;;;;;;;;;20.90;77.50;;;;;;4300509;33;44286;-69
2021/06/03 04:03:38;;;;;;;;;;;20.90;77.40;;;;;;4300995;33;43559;-68
2021/06/03 04:06:06;;;;;;;;;;;21.00;77.50;;;;;;4300558;33;44446;-69
2021/06/03 04:08:33;;;;;;;;;;;20.90;77.40;;;;;;4300213;33;43501;-68
2021/06/03 04:11:00;;;;;;;;;;;20.90;77.70;;;;;;4301480;33;43296;-69
2021/06/03 04:13:27;;;;;;;;;;;20.90;77.70;;;;;;4301546;33;44514;-69
2021/06/03 04:15:55;;;;;;;;;;;20.90;78.00;;;;;;4301116;33;44611;-69
2021/06/03 04:18:21;;;;;;;;;;;20.90;77.80;;;;;;4301051;33;44100;-69
2021/06/03 04:20:49;;;;;;;;;;;20.90;77.90;;;;;;4299965;33;43387;-69
2021/06/03 04:23:16;;;;;;;;;;;20.90;78.30;;;;;;4301444;33;44337;-69
2021/06/03 04:25:43;;;;;;;;;;;20.90;77.90;;;;;;4301594;33;36887;-69
2021/06/03 04:28:10;;;;;;;;;;;20.90;77.90;;;;;;4301287;33;44388;-69
2021/06/03 04:30:40;;;;;;;;;;;21.00;78.00;;;;;;4301079;33;43688;-69
2021/06/03 04:33:07;;;;;;;;;;;21.00;78.00;;;;;;4300966;33;44464;-69
2021/06/03 04:35:35;;;;;;;;;;;21.00;78.10;;;;;;4301206;33;43697;-69
2021/06/03 04:38:03;;;;;;;;;;;21.00;78.40;;;;;;4302182;33;20411;-69
2021/06/03 04:40:30;;;;;;;;;;;20.90;78.30;;;;;;4301322;33;42327;-69
2021/06/03 04:43:00;;;;;;;;;;;20.90;78.40;;;;;;4301351;33;43376;-69
2021/06/03 04:45:27;;;;;;;;;;;21.00;78.40;;;;;;4303276;33;40834;-69
2021/06/03 04:47:54;;;;;;;;;;;20.90;78.40;;;;;;4303846;33;44483;-69
2021/06/03 04:50:25;;;;;;;;;;;21.00;78.60;;;;;;4304947;33;20027;-69
2021/06/03 04:52:52;;;;;;;;;;;21.00;78.60;;;;;;4305287;33;20002;-69
2021/06/03 04:55:21;;;;;;;;;;;21.00;78.50;;;;;;4304712;33;22261;-69
2021/06/03 04:57:49;;;;;;;;;;;21.00;78.60;;;;;;4305091;33;20046;-68
2021/06/03 05:00:18;;;;;;;;;;;21.00;78.80;;;;;;4303735;33;20022;-69
2021/06/03 05:02:45;;;;;;;;;;;21.00;79.00;;;;;;4303818;33;28714;-69
2021/06/03 05:05:14;;;;;;;;;;;21.00;79.00;;;;;;4291627;33;21522;-69
2021/06/03 05:07:41;;;;;;;;;;;21.00;79.20;;;;;;4304968;33;20103;-69
2021/06/03 05:10:09;;;;;;;;;;;20.90;79.10;;;;;;4303400;33;22648;-69
2021/06/03 05:12:36;;;;;;;;;;;20.90;79.10;;;;;;4304600;33;20006;-69
2021/06/03 05:15:05;;;;;;;;;;;20.90;79.10;;;;;;4304829;33;20437;-69
2021/06/03 05:17:33;;;;;;;;;;;20.90;79.20;;;;;;4303152;33;21033;-69
2021/06/03 05:20:00;;;;;;;;;;;21.00;79.50;;;;;;4303106;33;27176;-69
2021/06/03 05:22:27;;;;;;;;;;;20.90;80.40;;;;;;4304377;33;22208;-69
2021/06/03 05:24:54;;;;;;;;;;;20.90;79.80;;;;;;4303971;33;20491;-68
2021/06/03 05:27:21;;;;;;;;;;;20.90;79.90;;;;;;4304273;33;23799;-69
2021/06/03 05:29:48;;;;;;;;;;;20.90;79.80;;;;;;4304012;33;20022;-69
2021/06/03 05:32:16;;;;;;;;;;;20.90;80.00;;;;;;4304402;33;20078;-69
2021/06/03 05:34:43;;;;;;;;;;;20.90;80.00;;;;;;4291154;33;19998;-69
2021/06/03 05:37:10;;;;;;;;;;;20.90;80.40;;;;;;4304442;33;20005;-69
2021/06/03 05:39:37;;;;;;;;;;;20.90;80.20;;;;;;4290615;33;29320;-69
2021/06/03 05:42:04;;;;;;;;;;;20.90;80.10;;;;;;4303172;33;24377;-69
2021/06/03 05:44:31;;;;;;;;;;;21.00;80.50;;;;;;4304152;33;20084;-69
2021/06/03 05:46:58;;;;;;;;;;;21.00;80.30;;;;;;4303718;33;20046;-69
2021/06/03 05:49:27;;;;;;;;;;;21.00;80.30;;;;;;4303493;33;20280;-69
2021/06/03 05:51:55;;;;;;;;;;;21.00;80.30;;;;;;4304501;33;20012;-69
2021/06/03 05:54:22;;;;;;;;;;;21.00;80.40;;;;;;4304148;33;22379;-69
2021/06/03 05:56:49;;;;;;;;;;;21.00;80.40;;;;;;4302862;33;22266;-69
2021/06/03 05:59:16;;;;;;;;;;;21.00;80.60;;;;;;4303643;33;20022;-69
2021/06/03 06:01:43;;;;;;;;;;;21.00;80.60;;;;;;4302483;33;23255;-70
2021/06/03 06:05:56;;;;;;;;;;;21.00;80.70;;;;;;4302574;33;24731;-69
2021/06/03 06:07:00;;;;;;;;;;;21.00;80.50;;;;;;4304025;33;20418;-69
2021/06/03 06:09:27;;;;;;;;;;;21.00;80.70;;;;;;4303412;33;20058;-69
2021/06/03 06:11:54;;;;;;;;;;;21.10;80.80;;;;;;4302384;33;25712;-69
2021/06/03 06:14:21;;;;;;;;;;;21.00;81.50;;;;;;4303677;33;20456;-69
2021/06/03 06:16:48;;;;;;;;;;;20.90;81.20;;;;;;4303693;33;20018;-70
2021/06/03 06:19:15;;;;;;;;;;;21.00;81.60;;;;;;4303781;33;20117;-70
2021/06/03 06:21:42;;;;;;;;;;;20.90;82.00;;;;;;4302996;33;24879;-70
2021/06/03 06:24:09;;;;;;;;;;;20.90;82.30;;;;;;4302165;33;27671;-70
2021/06/03 06:26:36;;;;;;;;;;;20.80;82.40;;;;;;4302042;33;27950;-70
2021/06/03 06:29:03;;;;;;;;;;;20.80;83.30;;;;;;4303192;33;25310;-70
2021/06/03 06:31:30;;;;;;;;;;;20.80;83.50;;;;;;4303016;33;27291;-71
2021/06/03 06:33:57;;;;;;;;;;;20.80;83.40;;;;;;4303731;33;20373;-70
2021/06/03 06:36:25;;;;;;;;;;;20.70;83.50;;;;;;4302945;33;26527;-70
2021/06/03 06:38:52;;;;;;;;;;;20.70;83.40;;;;;;4303164;33;20010;-70
2021/06/03 06:41:19;;;;;;;;;;;20.70;83.50;;;;;;4302289;33;20045;-70
2021/06/03 06:43:47;;;;;;;;;;;20.80;83.90;;;;;;4303517;33;20006;-70
2021/06/03 06:46:14;;;;;;;;;;;20.80;83.90;;;;;;4302055;33;23557;-71
2021/06/03 06:48:41;;;;;;;;;;;20.90;83.90;;;;;;4302479;33;20018;-70
2021/06/03 06:51:08;;;;;;;;;;;20.90;83.70;;;;;;4303347;33;20002;-70
2021/06/03 06:53:35;;;;;;;;;;;20.90;83.90;;;;;;4302562;33;25557;-70
2021/06/03 06:56:02;;;;;;;;;;;21.00;83.60;;;;;;4302660;33;25226;-71
2021/06/03 06:58:29;;;;;;;;;;;21.10;83.50;;;;;;4302644;33;20077;-70
2021/06/03 07:00:57;;;;;;;;;;;21.10;83.70;;;;;;4303255;33;20386;-71
2021/06/03 07:03:24;;;;;;;;;;;21.10;84.10;;;;;;4302804;33;20003;-70
2021/06/03 07:05:51;;;;;;;;;;;21.10;84.10;;;;;;4303247;33;20010;-70
2021/06/03 07:08:18;;;;;;;;;;;21.20;84.30;;;;;;4303100;33;20006;-71
2021/06/03 07:10:46;;;;;;;;;;;21.20;84.00;;;;;;4303199;33;20024;-71
2021/06/03 07:13:13;;;;;;;;;;;21.20;83.90;;;;;;4302097;33;27912;-70
2021/06/03 07:15:40;;;;;;;;;;;21.30;83.80;;;;;;4301432;33;32058;-71
2021/06/03 07:18:07;;;;;;;;;;;21.30;83.70;;;;;;4289313;33;22573;-71
2021/06/03 07:20:35;;;;;;;;;;;21.30;83.70;;;;;;4302453;33;24252;-71
2021/06/03 07:23:05;;;;;;;;;;;21.30;83.60;;;;;;4302290;33;20085;-70
2021/06/03 07:25:35;;;;;;;;;;;21.30;84.10;;;;;;4302766;33;20002;-71
2021/06/03 07:28:02;;;;;;;;;;;21.30;83.90;;;;;;4289476;33;23917;-72
2021/06/03 07:30:30;;;;;;;;;;;21.30;84.10;;;;;;4300974;33;23862;-70
2021/06/03 07:32:57;;;;;;;;;;;21.30;84.00;;;;;;4288336;33;42097;-70
2021/06/03 07:35:26;;;;;;;;;;;21.20;84.40;;;;;;4301764;33;44245;-71
2021/06/03 07:37:53;;;;;;;;;;;21.20;85.30;;;;;;4301428;33;42619;-70
2021/06/03 07:40:24;;;;;;;;;;;21.20;84.60;;;;;;4288270;33;44311;-70
2021/06/03 07:42:52;;;;;;;;;;;21.20;84.80;;;;;;4301798;33;43904;-71
2021/06/03 07:45:23;;;;;;;;;;;21.20;84.60;;;;;;4302012;33;44510;-71
2021/06/03 07:47:50;;;;;;;;;;;21.20;84.90;;;;;;4301732;33;43629;-70
2021/06/03 07:50:18;;;;;;;;;;;21.20;85.00;;;;;;4300464;33;43039;-70
2021/06/03 07:52:45;;;;;;;;;;;21.10;85.00;;;;;;4300136;33;44706;-70
2021/06/03 07:55:13;;;;;;;;;;;21.10;85.10;;;;;;4300161;33;42448;-71
2021/06/03 07:57:41;;;;;;;;;;;21.10;85.50;;;;;;4301213;33;43674;-70
2021/06/03 08:00:09;;;;;;;;;;;21.10;85.40;;;;;;4301542;33;43364;-70
2021/06/03 08:02:37;;;;;;;;;;;21.10;85.60;;;;;;4287911;33;43476;-70
2021/06/03 08:05:05;;;;;;;;;;;21.00;85.50;;;;;;4300428;33;45561;-71
2021/06/03 08:07:32;;;;;;;;;;;21.10;85.80;;;;;;4301598;33;43641;-70
2021/06/03 08:09:59;;;;;;;;;;;21.00;85.60;;;;;;4299973;33;43446;-70
2021/06/03 08:12:26;;;;;;;;;;;21.00;85.70;;;;;;4301143;33;43641;-70
2021/06/03 08:14:53;;;;;;;;;;;21.10;85.90;;;;;;4301265;33;44541;-70
2021/06/03 08:17:20;;;;;;;;;;;21.00;85.80;;;;;;4301071;33;42759;-70
2021/06/03 08:19:48;;;;;;;;;;;21.10;86.10;;;;;;4305589;33;43391;-70
2021/06/03 08:22:15;;;;;;;;;;;21.00;86.30;;;;;;4306266;33;43411;-70
2021/06/03 08:24:42;;;;;;;;;;;21.10;86.10;;;;;;4306840;33;20047;-71
2021/06/03 08:27:09;;;;;;;;;;;21.10;86.10;;;;;;4304866;33;43290;-70
2021/06/03 08:29:36;;;;;;;;;;;21.00;86.20;;;;;;4306016;33;42546;-70
2021/06/03 08:32:03;;;;;;;;;;;21.10;86.30;;;;;;4304867;33;43278;-70
2021/06/03 08:34:30;;;;;;;;;;;21.10;86.60;;;;;;4304704;33;43442;-70
2021/06/03 08:36:57;;;;;;;;;;;21.10;86.40;;;;;;4305778;33;42445;-72
2021/06/03 08:39:24;;;;;;;;;;;21.20;86.60;;;;;;4305744;33;44699;-70
2021/06/03 08:41:53;;;;;;;;;;;21.20;86.60;;;;;;4306538;33;43291;-71
2021/06/03 08:44:20;;;;;;;;;;;21.20;86.90;;;;;;4305972;33;43454;-71
2021/06/03 08:46:47;;;;;;;;;;;21.20;87.50;;;;;;4305886;33;44049;-71
2021/06/03 08:49:15;;;;;;;;;;;21.20;87.50;;;;;;4292848;33;38811;-70
2021/06/03 08:51:51;;;;;;;;;;;21.20;87.10;;;;;;4306602;33;30375;-71
2021/06/03 08:54:18;;;;;;;;;;;21.30;87.20;;;;;;4292696;33;43645;-70
2021/06/03 08:56:45;;;;;;;;;;;21.30;87.20;;;;;;4305840;33;43279;-71
2021/06/03 08:59:13;;;;;;;;;;;21.30;87.20;;;;;;4292479;33;44336;-70
2021/06/03 09:01:41;;;;;;;;;;;21.30;87.60;;;;;;4305799;33;43267;-71
2021/06/03 09:04:09;;;;;;;;;;;21.30;87.20;;;;;;4306137;33;43588;-71
2021/06/03 09:06:36;;;;;;;;;;;21.30;87.30;;;;;;4305807;33;43659;-70
2021/06/03 09:09:04;;;;;;;;;;;21.30;87.30;;;;;;4304428;33;44534;-71
2021/06/03 09:11:32;;;;;;;;;;;21.40;87.30;;;;;;4305573;33;44321;-70
2021/06/03 09:14:04;;;;;;;;;;;21.40;87.50;;;;;;4292722;33;44603;-70
2021/06/03 09:16:32;;;;;;;;;;;21.40;87.50;;;;;;4292885;33;44292;-70
2021/06/03 09:19:13;;;;;;;;;;;21.50;87.30;;;;;;4304315;33;44626;-70
2021/06/03 09:21:44;;;;;;;;;;;21.50;87.60;;;;;;4304799;33;43613;-70
2021/06/03 09:24:17;;;;;;;;;;;21.50;87.30;;;;;;4306231;33;44236;-71
2021/06/03 09:26:44;;;;;;;;;;;21.60;87.50;;;;;;4304883;33;43676;-70
2021/06/03 09:29:12;;;;;;;;;;;21.60;87.30;;;;;;4305733;33;43632;-71
2021/06/03 09:31:40;;;;;;;;;;;21.60;87.40;;;;;;4289189;33;43313;-71
2021/06/03 09:34:10;;;;;;;;;;;21.60;87.30;;;;;;4302062;33;42668;-71
2021/06/03 09:36:49;;;;;;;;;;;21.60;87.30;;;;;;4289992;33;44481;-70
2021/06/03 09:39:25;;;;;;;;;;;21.60;87.60;;;;;;4302314;33;44590;-71
2021/06/03 09:42:14;;;;;;;;;;;21.70;87.20;;;;;;4302476;33;44443;-71
2021/06/03 09:44:45;;;;;;;;;;;21.70;87.40;;;;;;4302260;33;45553;-71
2021/06/03 09:47:43;;;;;;;;;;;21.70;87.30;;;;;;4290180;33;42708;-71
2021/06/03 09:50:10;;;;;;;;;;;21.70;87.10;;;;;;4302569;33;30481;-71
2021/06/03 09:52:38;;;;;;;;;;;21.70;87.20;;;;;;4303821;33;20018;-71
2021/06/03 09:55:05;;;;;;;;;;;21.80;87.40;;;;;;4302469;33;20764;-71
2021/06/03 09:57:34;;;;;;;;;;;21.80;87.20;;;;;;4303660;33;20451;-71
2021/06/03 10:00:04;;;;;;;;;;;21.80;87.00;;;;;;4304053;33;20028;-71
2021/06/03 10:02:32;;;;;;;;;;;21.80;87.20;;;;;;4303237;33;23426;-71
2021/06/03 10:04:59;;;;;;;;;;;21.80;87.20;;;;;;4303963;33;20014;-71
2021/06/03 10:07:27;;;;;;;;;;;21.80;87.10;;;;;;4302682;33;42929;-71
2021/06/03 10:09:57;;;;;;;;;;;21.80;87.10;;;;;;4302586;33;42836;-71
2021/06/03 10:12:25;;;;;;;;;;;21.80;87.00;;;;;;4303289;33;43388;-71
2021/06/03 10:15:04;;;;;;;;;;;21.80;87.00;;;;;;4301531;33;44789;-71
2021/06/03 10:17:32;;;;;;;;;;;21.90;87.00;;;;;;4289622;33;43397;-71
2021/06/03 10:20:04;;;;;;;;;;;21.90;87.20;;;;;;4302992;33;43664;-71
2021/06/03 10:22:33;;;;;;;;;;;21.90;87.00;;;;;;4289347;33;44385;-71
2021/06/03 10:25:03;;;;;;;;;;;21.90;87.00;;;;;;4301763;33;44388;-71
2021/06/03 10:27:32;;;;;;;;;;;21.90;87.00;;;;;;4301631;33;43707;-71
2021/06/03 10:30:00;;;;;;;;;;;21.90;87.10;;;;;;4302738;33;44621;-71
2021/06/03 10:32:29;;;;;;;;;;;21.90;87.00;;;;;;4301364;33;42548;-71
2021/06/03 10:34:56;;;;;;;;;;;21.90;87.10;;;;;;4302392;33;44465;-71
2021/06/03 10:37:24;;;;;;;;;;;22.00;86.90;;;;;;4302495;33;43673;-71
2021/06/03 10:39:52;;;;;;;;;;;22.00;86.70;;;;;;4302754;33;43382;-71
2021/06/03 10:42:21;;;;;;;;;;;22.00;86.90;;;;;;4301007;33;44241;-71
2021/06/03 10:44:48;;;;;;;;;;;22.00;86.80;;;;;;4301523;33;43624;-71
2021/06/03 10:47:16;;;;;;;;;;;22.00;86.80;;;;;;4302772;33;42893;-71
2021/06/03 10:49:46;;;;;;;;;;;22.10;87.00;;;;;;4302667;33;43294;-71
2021/06/03 10:52:16;;;;;;;;;;;22.00;87.10;;;;;;4302424;33;43520;-71
2021/06/03 10:54:51;;;;;;;;;;;22.10;87.20;;;;;;4302438;33;43132;-71
2021/06/03 10:57:20;;;;;;;;;;;22.10;87.00;;;;;;4303078;33;20068;-71
2021/06/03 10:59:47;;;;;;;;;;;22.10;86.90;;;;;;4302431;33;20021;-71
2021/06/03 11:02:15;;;;;;;;;;;22.10;87.20;;;;;;4301072;33;35373;-71
2021/06/03 11:04:42;;;;;;;;;;;22.10;86.90;;;;;;4302101;33;43283;-71
2021/06/03 11:07:10;;;;;;;;;;;22.20;87.50;;;;;;4302365;33;44702;-71
2021/06/03 11:09:42;;;;;;;;;;;22.20;87.60;;;;;;4302456;33;29198;-71
2021/06/03 11:12:11;;;;;;;;;;;22.30;87.10;;;;;;4302453;33;43363;-71
2021/06/03 11:15:19;;;;;;;;;;;22.30;86.90;;;;;;4289198;33;23134;-71
2021/06/03 11:17:52;;;;;;;;;;;22.30;87.10;;;;;;4256900;33;44342;-71
2021/06/03 11:20:32;;;;;;;;;;;22.30;86.70;;;;;;4245516;33;42803;-71
2021/06/03 11:23:18;;;;;;;;;;;22.40;86.60;;;;;;4284872;33;43248;-71
2021/06/03 11:25:45;;;;;;;;;;;22.40;86.60;;;;;;4300966;33;44078;-71
2021/06/03 11:28:22;;;;;;;;;;;22.40;86.30;;;;;;4300554;33;43380;-71
2021/06/03 11:30:49;;;;;;;;;;;22.40;86.30;;;;;;4302426;33;44394;-71
2021/06/03 11:33:16;;;;;;;;;;;22.40;86.30;;;;;;4300584;33;44488;-71
2021/06/03 11:35:43;;;;;;;;;;;22.40;86.20;;;;;;4301974;33;43323;-71
2021/06/03 11:38:10;;;;;;;;;;;22.40;86.00;;;;;;4301458;33;43617;-71
2021/06/03 11:40:41;;;;;;;;;;;22.50;86.10;;;;;;4303178;33;20018;-71
2021/06/03 11:43:09;;;;;;;;;;;22.50;86.00;;;;;;4288302;33;44866;-71
2021/06/03 11:45:40;;;;;;;;;;;22.40;85.80;;;;;;4301597;33;43554;-71
2021/06/03 11:48:09;;;;;;;;;;;22.40;85.70;;;;;;4300269;33;44275;-71
2021/06/03 11:50:38;;;;;;;;;;;22.50;85.70;;;;;;4288384;33;44935;-71
2021/06/03 11:53:06;;;;;;;;;;;22.50;85.60;;;;;;4301435;33;40320;-71
2021/06/03 11:55:39;;;;;;;;;;;22.50;85.40;;;;;;4300553;33;44922;-71
2021/06/03 11:58:25;;;;;;;;;;;22.50;85.50;;;;;;4301766;33;44551;-71
2021/06/03 12:00:55;;;;;;;;;;;22.50;85.40;;;;;;4301868;33;43115;-71
2021/06/03 12:03:28;;;;;;;;;;;22.50;85.40;;;;;;4301061;33;43398;-71
2021/06/03 12:05:56;;;;;;;;;;;22.50;85.40;;;;;;4302314;33;25887;-71
2021/06/03 12:08:32;;;;;;;;;;;22.50;85.40;;;;;;4302271;33;23982;-71
2021/06/03 12:10:59;;;;;;;;;;;22.50;85.20;;;;;;4302211;33;21490;-71
2021/06/03 12:13:27;;;;;;;;;;;22.60;85.10;;;;;;4301958;33;20489;-71
2021/06/03 12:15:54;;;;;;;;;;;22.60;84.90;;;;;;4302014;33;21398;-71
2021/06/03 12:18:21;;;;;;;;;;;22.60;84.80;;;;;;4302815;33;20014;-71
2021/06/03 12:20:49;;;;;;;;;;;22.60;84.60;;;;;;4288822;33;21820;-71
2021/06/03 12:23:16;;;;;;;;;;;22.60;84.60;;;;;;4289230;33;20002;-71
2021/06/03 12:25:43;;;;;;;;;;;22.60;84.50;;;;;;4300957;33;20079;-71
2021/06/03 12:28:11;;;;;;;;;;;22.60;84.40;;;;;;4300921;33;24090;-71
2021/06/03 12:30:40;;;;;;;;;;;22.60;84.40;;;;;;4301661;33;20029;-71
2021/06/03 12:33:28;;;;;;;;;;;22.60;84.80;;;;;;4301848;33;20388;-71
2021/06/03 12:35:55;;;;;;;;;;;22.50;85.10;;;;;;4302089;33;24741;-70
2021/06/03 12:38:35;;;;;;;;;;;22.50;85.40;;;;;;4302324;33;22151;-70
2021/06/03 12:41:04;;;;;;;;;;;22.50;85.60;;;;;;4301944;33;27297;-70
2021/06/03 12:43:36;;;;;;;;;;;22.40;85.90;;;;;;4302138;33;20022;-70
2021/06/03 12:46:04;;;;;;;;;;;22.50;86.30;;;;;;4301236;33;20050;-70
2021/06/03 12:48:31;;;;;;;;;;;22.40;86.40;;;;;;4300955;33;22105;-70
2021/06/03 12:50:59;;;;;;;;;;;22.50;86.50;;;;;;4302539;33;20002;-70
2021/06/03 12:53:27;;;;;;;;;;;22.50;86.60;;;;;;4301663;33;24349;-70
2021/06/03 12:55:54;;;;;;;;;;;22.50;86.50;;;;;;4301960;33;25533;-70
2021/06/03 12:58:22;;;;;;;;;;;22.60;86.80;;;;;;4301300;33;20013;-70
2021/06/03 13:00:50;;;;;;;;;;;22.70;86.60;;;;;;4301458;33;23802;-70
2021/06/03 13:03:21;;;;;;;;;;;22.60;86.40;;;;;;4301621;33;22012;-70
2021/06/03 13:06:09;;;;;;;;;;;22.70;86.40;;;;;;4303750;33;20042;-70
2021/06/03 13:08:50;;;;;;;;;;;22.70;86.20;;;;;;4305145;33;20068;-70
2021/06/03 13:11:47;;;;;;;;;;;22.70;86.10;;;;;;4304472;33;20006;-70
2021/06/03 13:14:19;;;;;;;;;;;22.80;86.00;;;;;;4296150;33;20065;-70
2021/06/03 13:16:48;;;;;;;;;;;22.80;85.90;;;;;;4304121;33;20080;-70
2021/06/03 13:19:17;;;;;;;;;;;22.80;85.80;;;;;;4304300;33;24194;-71
2021/06/03 13:21:45;;;;;;;;;;;22.80;85.80;;;;;;4304353;33;20041;-71
2021/06/03 13:24:19;;;;;;;;;;;22.80;85.70;;;;;;4304188;33;20041;-71
2021/06/03 13:26:46;;;;;;;;;;;22.80;85.70;;;;;;4304445;33;22274;-71
2021/06/03 13:29:14;;;;;;;;;;;22.90;85.70;;;;;;4304417;33;20007;-70
2021/06/03 13:31:41;;;;;;;;;;;22.90;85.60;;;;;;4304637;33;20438;-71
2021/06/03 13:34:27;;;;;;;;;;;22.90;85.70;;;;;;4291490;33;20380;-71
2021/06/03 13:36:58;;;;;;;;;;;22.90;86.30;;;;;;4290881;33;25995;-70
2021/06/03 13:39:29;;;;;;;;;;;22.90;86.00;;;;;;4304699;33;20007;-70
2021/06/03 13:41:57;;;;;;;;;;;23.00;86.00;;;;;;4303287;33;20076;-71
2021/06/03 13:44:28;;;;;;;;;;;23.00;85.90;;;;;;4289834;33;44960;-71
2021/06/03 13:46:55;;;;;;;;;;;23.10;85.80;;;;;;4303505;33;43348;-70
2021/06/03 13:49:32;;;;;;;;;;;23.00;85.70;;;;;;4302982;33;44528;-71
2021/06/03 13:52:03;;;;;;;;;;;23.10;85.70;;;;;;4303324;33;43770;-71
2021/06/03 13:54:30;;;;;;;;;;;23.10;85.70;;;;;;4302917;33;42237;-71
2021/06/03 13:56:57;;;;;;;;;;;23.20;85.70;;;;;;4290110;33;42858;-71
2021/06/03 13:59:24;;;;;;;;;;;23.20;85.60;;;;;;4303495;33;44371;-71
2021/06/03 14:01:54;;;;;;;;;;;23.20;85.50;;;;;;4303213;33;20025;-71
2021/06/03 14:04:21;;;;;;;;;;;23.20;85.40;;;;;;4289893;33;44761;-71
2021/06/03 14:06:49;;;;;;;;;;;23.20;85.30;;;;;;4302716;33;43224;-71
2021/06/03 14:09:16;;;;;;;;;;;23.30;85.30;;;;;;4303519;33;20526;-71
2021/06/03 14:14:45;;;;;;;;;;;23.40;85.10;;;;;;4304365;33;20450;-71
2021/06/03 14:17:16;;;;;;;;;;;23.40;85.00;;;;;;4302373;33;43754;-71
2021/06/03 14:19:48;;;;;;;;;;;23.40;84.80;;;;;;4302030;33;43676;-71
2021/06/03 14:22:18;;;;;;;;;;;23.40;84.70;;;;;;4302518;33;43377;-71
2021/06/03 14:24:55;;;;;;;;;;;23.40;84.50;;;;;;4290129;33;28792;-71
2021/06/03 14:27:22;;;;;;;;;;;23.40;84.40;;;;;;4303683;33;20017;-71
2021/06/03 14:29:51;;;;;;;;;;;23.50;84.40;;;;;;4302369;33;20021;-71